createdAt,value
2022-10-19T00:01:32.274Z,100.00
2022-10-19T00:03:59.987Z,100.00
2022-10-19T00:06:34.403Z,100.00
2022-10-19T00:09:05.979Z,100.00
2022-10-19T00:11:33.471Z,100.00
2022-10-19T00:14:00.610Z,100.00
2022-10-19T00:16:31.018Z,100.00
2022-10-19T00:18:59.554Z,100.00
2022-10-19T00:21:26.687Z,100.00
2022-10-19T00:23:53.266Z,100.00
2022-10-19T00:26:19.803Z,100.00
2022-10-19T00:28:46.446Z,100.00
2022-10-19T00:31:17.261Z,100.00
2022-10-19T00:33:47.037Z,100.00
2022-10-19T00:36:20.281Z,100.00
2022-10-19T00:38:47.160Z,100.00
2022-10-19T00:41:14.767Z,100.00
2022-10-19T00:44:13.705Z,100.00
2022-10-19T00:46:42.758Z,100.00
2022-10-19T00:49:13.065Z,100.00
2022-10-19T00:51:41.921Z,100.00
2022-10-19T00:54:09.589Z,100.00
2022-10-19T00:56:41.073Z,100.00
2022-10-19T00:59:09.458Z,100.00
2022-10-19T01:01:36.591Z,100.00
2022-10-19T01:04:04.018Z,100.00
2022-10-19T01:06:31.169Z,100.00
2022-10-19T01:08:57.731Z,100.00
2022-10-19T01:11:39.946Z,100.00
2022-10-19T01:14:25.041Z,100.00
2022-10-19T01:17:03.674Z,100.00
2022-10-19T01:19:55.039Z,100.00
2022-10-19T01:23:11.893Z,100.00
2022-10-19T01:26:03.387Z,100.00
2022-10-19T01:28:59.606Z,100.00
2022-10-19T01:31:48.438Z,100.00
2022-10-19T01:34:33.132Z,100.00
2022-10-19T01:37:05.417Z,100.00
2022-10-19T01:39:38.132Z,100.00
2022-10-19T01:42:13.660Z,100.00
2022-10-19T01:44:50.056Z,100.00
2022-10-19T01:47:30.456Z,100.00
2022-10-19T01:50:03.686Z,100.00
2022-10-19T01:52:32.932Z,100.00
2022-10-19T01:55:03.180Z,100.00
2022-10-19T01:57:36.338Z,100.00
2022-10-19T02:00:07.608Z,100.00
2022-10-19T02:02:37.723Z,100.00
2022-10-19T02:05:06.007Z,100.00
2022-10-19T02:07:33.731Z,100.00
2022-10-19T02:10:00.826Z,100.00
2022-10-19T02:12:29.026Z,100.00
2022-10-19T02:14:59.154Z,100.00
2022-10-19T02:17:30.880Z,100.00
2022-10-19T02:19:58.073Z,100.00
2022-10-19T02:22:28.113Z,100.00
2022-10-19T02:24:54.552Z,100.00
2022-10-19T02:27:21.354Z,100.00
2022-10-19T02:29:48.033Z,100.00
2022-10-19T02:32:14.853Z,100.00
2022-10-19T02:34:41.918Z,100.00
2022-10-19T02:37:08.626Z,100.00
2022-10-19T02:39:35.579Z,100.00
2022-10-19T02:42:06.824Z,100.00
2022-10-19T02:45:03.253Z,100.00
2022-10-19T02:47:37.573Z,100.00
2022-10-19T02:50:08.426Z,100.00
2022-10-19T02:52:38.179Z,100.00
2022-10-19T02:55:06.151Z,100.00
2022-10-19T02:57:33.298Z,100.00
2022-10-19T03:00:03.930Z,100.00
2022-10-19T03:02:30.413Z,100.00
2022-10-19T03:04:56.925Z,100.00
2022-10-19T03:07:23.853Z,100.00
2022-10-19T03:09:50.609Z,100.00
2022-10-19T03:12:17.564Z,100.00
2022-10-19T03:14:44.583Z,100.00
2022-10-19T03:17:11.129Z,100.00
2022-10-19T03:19:37.974Z,100.00
2022-10-19T03:22:04.661Z,100.00
2022-10-19T03:24:31.297Z,100.00
2022-10-19T03:26:57.853Z,100.00
2022-10-19T03:29:24.561Z,100.00
2022-10-19T03:31:51.352Z,100.00
2022-10-19T03:34:17.888Z,100.00
2022-10-19T03:36:44.421Z,100.00
2022-10-19T03:39:13.681Z,100.00
2022-10-19T03:41:40.738Z,100.00
2022-10-19T03:44:08.490Z,100.00
2022-10-19T03:46:35.563Z,100.00
2022-10-19T03:49:02.757Z,100.00
2022-10-19T03:51:31.036Z,99.62
2022-10-19T03:54:00.018Z,99.77
2022-10-19T03:56:28.700Z,99.18
2022-10-19T03:58:56.882Z,98.38
2022-10-19T04:01:41.202Z,98.95
2022-10-19T04:04:11.185Z,99.16
2022-10-19T04:06:41.296Z,99.12
2022-10-19T04:09:08.984Z,99.56
2022-10-19T04:11:36.476Z,99.70
2022-10-19T04:14:04.011Z,99.74
2022-10-19T04:16:32.208Z,99.82
2022-10-19T04:18:59.060Z,99.94
2022-10-19T04:21:29.935Z,100.00
2022-10-19T04:24:08.519Z,100.00
2022-10-19T04:26:39.777Z,100.00
2022-10-19T04:29:06.445Z,100.00
2022-10-19T04:31:32.950Z,100.00
2022-10-19T04:33:59.661Z,100.00
2022-10-19T04:36:26.324Z,100.00
2022-10-19T04:38:52.906Z,100.00
2022-10-19T04:41:20.954Z,100.00
2022-10-19T04:43:48.305Z,100.00
2022-10-19T04:46:18.423Z,100.00
2022-10-19T04:48:46.390Z,100.00
2022-10-19T04:51:14.265Z,100.00
2022-10-19T04:53:41.765Z,99.87
2022-10-19T04:56:17.148Z,99.87
2022-10-19T04:58:44.144Z,100.00
2022-10-19T05:01:12.727Z,100.00
2022-10-19T05:03:39.826Z,100.00
2022-10-19T05:06:07.622Z,99.65
2022-10-19T05:08:34.841Z,99.74
2022-10-19T05:11:03.750Z,99.96
2022-10-19T05:13:34.354Z,100.00
2022-10-19T05:16:03.107Z,100.00
2022-10-19T05:18:30.189Z,100.00
2022-10-19T05:21:08.297Z,100.00
2022-10-19T05:23:35.070Z,100.00
2022-10-19T05:26:17.524Z,100.00
2022-10-19T05:28:56.137Z,100.00
2022-10-19T05:31:25.315Z,100.00
2022-10-19T05:33:51.858Z,100.00
2022-10-19T05:36:26.807Z,100.00
2022-10-19T05:38:55.778Z,100.00
2022-10-19T05:41:24.140Z,100.00
2022-10-19T05:43:58.710Z,100.00
2022-10-19T05:46:26.766Z,100.00
2022-10-19T05:48:54.516Z,100.00
2022-10-19T05:51:22.800Z,100.00
2022-10-19T05:53:49.838Z,100.00
2022-10-19T05:56:21.225Z,100.00
2022-10-19T05:58:48.300Z,100.00
2022-10-19T06:01:15.777Z,100.00
2022-10-19T06:06:27.423Z,100.00
2022-10-19T06:08:55.374Z,100.00
2022-10-19T06:11:25.249Z,100.00
2022-10-19T06:13:54.861Z,100.00
2022-10-19T06:16:24.007Z,100.00
2022-10-19T06:18:51.049Z,100.00
2022-10-19T06:21:20.234Z,100.00
2022-10-19T06:23:58.112Z,100.00
2022-10-19T06:26:26.013Z,100.00
2022-10-19T06:28:55.919Z,100.00
2022-10-19T06:31:22.514Z,100.00
2022-10-19T06:33:49.645Z,100.00
2022-10-19T06:36:23.211Z,100.00
2022-10-19T06:38:50.546Z,100.00
2022-10-19T06:41:17.380Z,100.00
2022-10-19T06:43:44.453Z,100.00
2022-10-19T06:46:20.509Z,100.00
2022-10-19T06:49:04.947Z,100.00
2022-10-19T06:51:34.166Z,100.00
2022-10-19T06:54:00.804Z,100.00
2022-10-19T06:56:27.571Z,100.00
2022-10-19T06:58:54.971Z,100.00
2022-10-19T07:01:22.211Z,100.00
2022-10-19T07:03:50.791Z,100.00
2022-10-19T07:06:18.167Z,100.00
2022-10-19T07:08:44.909Z,100.00
2022-10-19T07:11:16.063Z,100.00
2022-10-19T07:13:42.599Z,100.00
2022-10-19T07:16:19.510Z,100.00
2022-10-19T07:18:49.435Z,100.00
2022-10-19T07:21:16.919Z,100.00
2022-10-19T07:23:47.365Z,100.00
2022-10-19T07:26:15.899Z,100.00
2022-10-19T07:28:45.120Z,99.15
2022-10-19T07:31:14.634Z,100.00
2022-10-19T07:33:41.506Z,100.00
2022-10-19T07:36:10.088Z,100.00
2022-10-19T07:38:37.092Z,100.00
2022-10-19T07:41:10.204Z,100.00
2022-10-19T07:43:36.739Z,100.00
2022-10-19T07:46:06.922Z,100.00
2022-10-19T07:48:34.266Z,100.00
2022-10-19T07:51:02.815Z,100.00
2022-10-19T07:53:29.381Z,100.00
2022-10-19T07:55:56.429Z,100.00
2022-10-19T07:58:22.903Z,100.00
2022-10-19T08:00:49.419Z,100.00
2022-10-19T08:06:04.403Z,100.00
2022-10-19T08:08:31.404Z,100.00
2022-10-19T08:10:58.673Z,99.70
2022-10-19T08:13:25.227Z,100.00
2022-10-19T08:15:51.692Z,100.00
2022-10-19T08:18:18.512Z,100.00
2022-10-19T08:20:45.085Z,100.00
2022-10-19T08:23:11.562Z,100.00
2022-10-19T08:25:38.005Z,100.00
2022-10-19T08:28:04.556Z,99.75
2022-10-19T08:30:31.160Z,98.27
2022-10-19T08:32:57.638Z,96.86
2022-10-19T08:35:24.074Z,96.88
2022-10-19T08:37:50.823Z,96.11
2022-10-19T08:40:22.985Z,94.67
2022-10-19T08:43:21.821Z,94.06
2022-10-19T08:45:53.473Z,93.79
2022-10-19T08:48:33.091Z,91.72
2022-10-19T08:51:01.061Z,90.82
2022-10-19T08:53:37.450Z,92.28
2022-10-19T08:56:39.044Z,93.49
2022-10-19T08:59:07.554Z,94.47
2022-10-19T09:01:40.529Z,95.58
2022-10-19T09:04:17.182Z,95.88
2022-10-19T09:07:01.592Z,96.58
2022-10-19T09:09:30.744Z,93.80
2022-10-19T09:12:07.221Z,94.18
2022-10-19T09:14:52.197Z,94.46
2022-10-19T09:17:18.739Z,95.06
2022-10-19T09:19:45.437Z,95.59
2022-10-19T09:22:25.140Z,96.57
2022-10-19T09:24:54.129Z,95.36
2022-10-19T09:27:26.216Z,96.29
2022-10-19T09:29:58.909Z,96.25
2022-10-19T09:32:38.007Z,95.99
2022-10-19T09:35:25.073Z,96.74
2022-10-19T09:37:52.568Z,96.96
2022-10-19T09:40:25.769Z,97.80
2022-10-19T09:42:57.150Z,97.14
2022-10-19T09:45:40.564Z,97.50
2022-10-19T09:48:20.477Z,96.69
2022-10-19T09:50:53.560Z,96.09
2022-10-19T09:53:21.718Z,94.59
2022-10-19T09:55:56.372Z,94.74
2022-10-19T09:58:29.167Z,91.10
2022-10-19T10:00:58.822Z,89.10
2022-10-19T10:03:40.343Z,90.32
2022-10-19T10:06:15.790Z,89.19
2022-10-19T10:08:52.693Z,89.45
2022-10-19T10:11:31.652Z,89.02
2022-10-19T10:14:00.990Z,88.81
2022-10-19T10:16:30.432Z,89.20
2022-10-19T10:19:00.917Z,89.08
2022-10-19T10:21:45.754Z,87.01
2022-10-19T10:24:12.205Z,85.97
2022-10-19T10:26:44.832Z,85.61
2022-10-19T10:29:17.171Z,83.76
2022-10-19T10:31:44.248Z,83.48
2022-10-19T10:34:28.325Z,84.41
2022-10-19T10:36:58.036Z,85.55
2022-10-19T10:39:28.434Z,82.63
2022-10-19T10:42:00.116Z,83.30
2022-10-19T10:44:33.459Z,79.36
2022-10-19T10:47:01.779Z,77.56
2022-10-19T10:49:32.845Z,79.21
2022-10-19T10:52:09.898Z,81.37
2022-10-19T10:54:37.400Z,81.92
2022-10-19T10:57:18.469Z,82.65
2022-10-19T11:00:03.688Z,83.33
2022-10-19T11:02:58.404Z,82.58
2022-10-19T11:05:33.575Z,82.65
2022-10-19T11:08:12.092Z,83.57
2022-10-19T11:11:00.583Z,83.84
2022-10-19T11:13:46.506Z,83.57
2022-10-19T11:16:17.129Z,82.04
2022-10-19T11:18:48.762Z,82.24
2022-10-19T11:21:31.938Z,82.55
2022-10-19T11:24:23.049Z,81.26
2022-10-19T11:27:02.707Z,80.71
2022-10-19T11:30:08.543Z,80.77
2022-10-19T11:32:57.914Z,78.93
2022-10-19T11:35:36.570Z,79.47
2022-10-19T11:38:40.298Z,80.96
2022-10-19T11:41:39.209Z,79.00
2022-10-19T11:44:32.531Z,79.46
2022-10-19T11:47:23.818Z,78.01
2022-10-19T11:50:31.064Z,78.64
2022-10-19T11:53:12.300Z,76.51
2022-10-19T11:55:56.339Z,79.26
2022-10-19T11:58:35.384Z,79.60
2022-10-19T12:01:24.107Z,79.69
2022-10-19T12:03:59.674Z,79.27
2022-10-19T12:06:29.071Z,80.04
2022-10-19T12:09:14.303Z,79.11
2022-10-19T12:12:11.097Z,78.49
2022-10-19T12:14:41.606Z,78.52
2022-10-19T12:17:15.024Z,76.65
2022-10-19T12:19:49.366Z,74.58
2022-10-19T12:22:22.173Z,75.02
2022-10-19T12:24:50.836Z,75.37
2022-10-19T12:27:24.872Z,75.40
2022-10-19T12:29:52.299Z,74.73
2022-10-19T12:32:23.736Z,73.61
2022-10-19T12:35:04.730Z,74.21
2022-10-19T12:37:55.149Z,74.89
2022-10-19T12:40:46.567Z,74.85
2022-10-19T12:43:36.304Z,74.89
2022-10-19T12:46:25.741Z,74.50
2022-10-19T12:49:26.040Z,73.03
2022-10-19T12:51:54.348Z,73.73
2022-10-19T12:54:26.119Z,74.39
2022-10-19T12:56:55.819Z,73.52
2022-10-19T12:59:29.091Z,74.26
2022-10-19T13:01:57.066Z,74.32
2022-10-19T13:04:29.299Z,75.27
2022-10-19T13:07:08.054Z,74.85
2022-10-19T13:09:37.525Z,74.19
2022-10-19T13:12:19.916Z,73.77
2022-10-19T13:14:51.927Z,75.38
2022-10-19T13:17:36.942Z,76.35
2022-10-19T13:20:15.415Z,77.44
2022-10-19T13:22:47.314Z,75.84
2022-10-19T13:25:19.626Z,75.77
2022-10-19T13:27:51.273Z,75.95
2022-10-19T13:30:35.987Z,76.00
2022-10-19T13:33:28.671Z,77.79
2022-10-19T13:36:02.193Z,77.21
2022-10-19T13:38:46.777Z,78.18
2022-10-19T13:41:46.926Z,77.81
2022-10-19T13:44:14.386Z,77.60
2022-10-19T13:47:02.204Z,77.27
2022-10-19T13:49:41.134Z,77.82
2022-10-19T13:52:07.541Z,78.28
2022-10-19T13:55:12.658Z,77.45
2022-10-19T13:57:59.219Z,78.23
2022-10-19T14:01:00.837Z,77.93
2022-10-19T14:03:51.291Z,78.58
2022-10-19T14:06:46.792Z,79.86
2022-10-19T14:09:16.822Z,80.22
2022-10-19T14:11:46.926Z,80.86
2022-10-19T14:14:22.357Z,79.91
2022-10-19T14:17:02.968Z,79.85
2022-10-19T14:19:43.084Z,79.84
2022-10-19T14:22:26.308Z,81.47
2022-10-19T14:25:01.145Z,80.59
2022-10-19T14:27:28.174Z,80.41
2022-10-19T14:29:54.722Z,80.48
2022-10-19T14:32:25.408Z,80.53
2022-10-19T14:34:52.881Z,81.21
2022-10-19T14:37:25.864Z,81.75
2022-10-19T14:40:07.666Z,82.47
2022-10-19T14:42:47.370Z,82.47
2022-10-19T14:45:21.103Z,83.20
2022-10-19T14:47:54.882Z,83.72
2022-10-19T14:50:26.589Z,82.95
2022-10-19T14:53:16.872Z,83.79
2022-10-19T14:55:44.092Z,84.16
2022-10-19T14:58:16.409Z,83.35
2022-10-19T15:00:44.866Z,83.96
2022-10-19T15:03:17.802Z,85.14
2022-10-19T15:05:49.718Z,86.08
2022-10-19T15:08:30.427Z,86.64
2022-10-19T15:10:57.515Z,86.31
2022-10-19T15:13:41.728Z,85.75
2022-10-19T15:16:33.733Z,86.04
2022-10-19T15:19:14.410Z,85.86
2022-10-19T15:21:40.907Z,85.47
2022-10-19T15:24:21.525Z,85.94
2022-10-19T15:27:06.545Z,86.01
2022-10-19T15:29:35.076Z,86.84
2022-10-19T15:32:23.143Z,87.02
2022-10-19T15:34:50.107Z,88.00
2022-10-19T15:39:53.391Z,89.90
2022-10-19T15:42:44.047Z,89.83
2022-10-19T15:45:36.405Z,90.61
2022-10-19T15:48:21.525Z,91.24
2022-10-19T15:50:49.865Z,91.01
2022-10-19T15:53:16.763Z,92.55
2022-10-19T15:55:43.301Z,93.47
2022-10-19T15:58:13.684Z,94.32
2022-10-19T16:00:41.298Z,94.96
2022-10-19T16:03:09.100Z,95.44
2022-10-19T16:05:36.587Z,95.96
2022-10-19T16:08:03.446Z,96.54
2022-10-19T16:10:29.941Z,96.76
2022-10-19T16:12:56.417Z,97.37
2022-10-19T16:15:23.681Z,97.04
2022-10-19T16:17:55.517Z,96.33
2022-10-19T16:20:23.217Z,95.58
2022-10-19T16:22:50.293Z,95.93
2022-10-19T16:25:17.272Z,96.59
2022-10-19T16:27:43.981Z,96.84
2022-10-19T16:30:11.324Z,97.68
2022-10-19T16:32:39.847Z,98.52
2022-10-19T16:35:08.485Z,98.38
2022-10-19T16:37:35.330Z,98.71
2022-10-19T16:40:02.011Z,99.38
2022-10-19T16:42:30.547Z,99.58
2022-10-19T16:44:57.333Z,99.87
2022-10-19T16:47:23.823Z,99.90
2022-10-19T16:49:58.975Z,99.23
2022-10-19T16:52:27.108Z,99.38
2022-10-19T16:54:53.659Z,99.60
2022-10-19T16:57:20.197Z,99.94
2022-10-19T16:59:50.104Z,99.08
2022-10-19T17:02:16.661Z,98.91
2022-10-19T17:04:43.096Z,99.88
2022-10-19T17:07:09.746Z,100.00
2022-10-19T17:09:41.766Z,100.00
2022-10-19T17:12:09.797Z,100.00
2022-10-19T17:14:38.223Z,100.00
2022-10-19T17:17:04.893Z,100.00
2022-10-19T17:19:31.623Z,100.00
2022-10-19T17:21:59.086Z,100.00
2022-10-19T17:24:26.051Z,100.00
2022-10-19T17:26:54.454Z,100.00
2022-10-19T17:29:22.726Z,100.00
2022-10-19T17:31:50.024Z,100.00
2022-10-19T17:34:17.231Z,100.00
2022-10-19T17:36:45.304Z,100.00
2022-10-19T17:39:17.588Z,99.91
2022-10-19T17:41:48.434Z,99.61
2022-10-19T17:44:15.929Z,99.83
2022-10-19T17:46:45.152Z,100.00
2022-10-19T17:49:12.546Z,99.78
2022-10-19T17:51:39.584Z,98.93
2022-10-19T17:54:08.836Z,98.75
2022-10-19T17:56:36.911Z,99.01
2022-10-19T17:59:04.466Z,99.59
2022-10-19T18:01:31.047Z,98.77
2022-10-19T18:03:57.618Z,97.24
2022-10-19T18:06:31.501Z,95.24
2022-10-19T18:08:59.771Z,93.89
2022-10-19T18:11:32.404Z,93.30
2022-10-19T18:14:00.357Z,92.58
2022-10-19T18:16:32.852Z,91.86
2022-10-19T18:19:01.161Z,91.97
2022-10-19T18:21:32.898Z,91.43
2022-10-19T18:24:01.922Z,91.22
2022-10-19T18:26:30.741Z,91.14
2022-10-19T18:28:58.620Z,90.62
2022-10-19T18:31:30.982Z,90.27
2022-10-19T18:34:02.664Z,90.15
2022-10-19T18:36:30.838Z,89.92
2022-10-19T18:39:01.910Z,89.57
2022-10-19T18:41:31.349Z,89.12
2022-10-19T18:44:04.938Z,88.85
2022-10-19T18:46:37.485Z,88.71
2022-10-19T18:49:08.197Z,88.51
2022-10-19T18:51:35.594Z,88.57
2022-10-19T18:54:02.181Z,88.71
2022-10-19T18:56:29.993Z,89.38
2022-10-19T18:58:56.997Z,89.17
2022-10-19T19:01:29.413Z,89.12
2022-10-19T19:03:58.300Z,89.02
2022-10-19T19:06:29.471Z,89.17
2022-10-19T19:08:58.821Z,89.14
2022-10-19T19:11:34.281Z,89.50
2022-10-19T19:14:07.669Z,89.59
2022-10-19T19:16:39.333Z,89.20
2022-10-19T19:19:06.836Z,88.88
2022-10-19T19:21:35.663Z,88.62
2022-10-19T19:24:04.646Z,88.84
2022-10-19T19:26:34.014Z,89.23
2022-10-19T19:29:02.520Z,89.42
2022-10-19T19:31:29.193Z,89.36
2022-10-19T19:33:56.278Z,89.48
2022-10-19T19:36:22.797Z,89.61
2022-10-19T19:38:51.068Z,89.73
2022-10-19T19:41:17.888Z,89.63
2022-10-19T19:43:44.766Z,89.35
2022-10-19T19:46:14.501Z,88.88
2022-10-19T19:48:43.127Z,89.00
2022-10-19T19:51:11.759Z,88.50
2022-10-19T19:53:38.603Z,88.97
2022-10-19T19:56:10.581Z,90.11
2022-10-19T19:58:37.389Z,90.71
2022-10-19T20:01:14.589Z,91.69
2022-10-19T20:03:41.878Z,92.25
2022-10-19T20:06:09.451Z,93.23
2022-10-19T20:08:36.952Z,92.74
2022-10-19T20:11:09.699Z,90.98
2022-10-19T20:13:36.719Z,89.94
2022-10-19T20:16:15.672Z,88.66
2022-10-19T20:18:45.551Z,88.04
2022-10-19T20:21:12.818Z,87.87
2022-10-19T20:23:39.428Z,87.43
2022-10-19T20:26:06.113Z,87.11
2022-10-19T20:28:33.187Z,86.94
2022-10-19T20:31:05.192Z,86.34
2022-10-19T20:33:32.484Z,86.66
2022-10-19T20:36:07.417Z,86.01
2022-10-19T20:38:35.035Z,86.15
2022-10-19T20:41:08.057Z,85.89
2022-10-19T20:43:36.292Z,85.64
2022-10-19T20:46:33.370Z,85.56
2022-10-19T20:49:01.578Z,85.54
2022-10-19T20:51:38.419Z,85.06
2022-10-19T20:54:12.292Z,84.97
2022-10-19T20:56:40.501Z,85.35
2022-10-19T20:59:13.423Z,85.36
2022-10-19T21:01:41.753Z,85.85
2022-10-19T21:04:11.246Z,86.51
2022-10-19T21:06:41.052Z,86.67
2022-10-19T21:09:08.519Z,86.73
2022-10-19T21:11:37.408Z,86.36
2022-10-19T21:14:06.834Z,86.27
2022-10-19T21:16:37.823Z,85.89
2022-10-19T21:19:07.171Z,85.53
2022-10-19T21:21:36.345Z,85.20
2022-10-19T21:24:08.752Z,85.04
2022-10-19T21:26:36.655Z,84.74
2022-10-19T21:29:04.411Z,84.92
2022-10-19T21:31:30.962Z,85.07
2022-10-19T21:33:57.744Z,84.76
2022-10-19T21:36:27.567Z,84.71
2022-10-19T21:38:54.031Z,84.53
2022-10-19T21:41:25.329Z,85.02
2022-10-19T21:43:53.278Z,84.83
2022-10-19T21:46:21.632Z,85.19
2022-10-19T21:48:48.923Z,85.10
2022-10-19T21:51:23.851Z,84.97
2022-10-19T21:53:50.912Z,84.88
2022-10-19T21:56:17.455Z,85.20
2022-10-19T21:58:48.688Z,85.08
2022-10-19T22:01:16.786Z,85.13
2022-10-19T22:03:43.662Z,85.85
2022-10-19T22:06:10.699Z,86.41
2022-10-19T22:08:37.756Z,87.23
2022-10-19T22:11:09.328Z,88.53
2022-10-19T22:13:36.471Z,90.97
2022-10-19T22:16:07.430Z,91.71
2022-10-19T22:18:34.842Z,91.53
2022-10-19T22:21:10.946Z,91.64
2022-10-19T22:23:37.907Z,91.16
2022-10-19T22:26:14.904Z,91.55
2022-10-19T22:28:42.156Z,91.20
2022-10-19T22:31:08.849Z,91.91
2022-10-19T22:33:35.467Z,92.63
2022-10-19T22:36:04.831Z,92.29
2022-10-19T22:38:31.668Z,92.64
2022-10-19T22:40:58.200Z,93.24
2022-10-19T22:43:24.676Z,93.04
2022-10-19T22:45:51.256Z,93.87
2022-10-19T22:48:18.936Z,93.77
2022-10-19T22:50:46.229Z,94.21
2022-10-19T22:53:13.408Z,93.44
2022-10-19T22:55:40.121Z,92.82
2022-10-19T22:58:08.464Z,92.86
2022-10-19T23:00:35.228Z,92.09
2022-10-19T23:03:01.701Z,91.96
2022-10-19T23:05:28.133Z,91.73
2022-10-19T23:07:54.641Z,90.95
2022-10-19T23:10:21.234Z,91.28
2022-10-19T23:12:54.136Z,91.32
2022-10-19T23:15:21.777Z,91.49
2022-10-19T23:17:48.347Z,92.42
2022-10-19T23:20:15.076Z,93.08
2022-10-19T23:22:41.534Z,92.78
2022-10-19T23:25:08.640Z,92.89
2022-10-19T23:27:35.315Z,92.91
2022-10-19T23:30:02.807Z,93.21
2022-10-19T23:32:29.270Z,93.06
2022-10-19T23:34:55.744Z,92.89
2022-10-19T23:37:22.260Z,93.30
2022-10-19T23:39:48.707Z,93.44
2022-10-19T23:42:15.252Z,92.28
2022-10-19T23:44:41.732Z,92.50
2022-10-19T23:47:08.181Z,92.14
2022-10-19T23:49:34.703Z,92.10
2022-10-19T23:52:01.166Z,92.20
2022-10-19T23:54:27.663Z,91.61
2022-10-19T23:56:54.102Z,90.98
2022-10-19T23:59:20.591Z,91.37
